Time;durP1;ratioP1;P1;durP2;ratioP2;P2;SDS_P1;SDS_P2;PMS_P1;PMS_P2;Temp;Humidity;BMP_temperature;BMP_pressure;BME280_temperature;BME280_humidity;BME280_pressure;Samples;Min_cycle;Max_cycle;Signal;HPM_P1;HPM_P2
2021/06/14 00:01:26;;;;;;;7.55;2.67;;;435.70;2329.60;;;;;;5033745;28;20469;-80
2021/06/14 00:03:51;;;;;;;10.32;3.20;;;435.60;2355.20;;;;;;5033946;28;20018;-81
2021/06/14 00:06:17;;;;;;;8.55;2.80;;;435.70;2355.20;;;;;;5033683;28;20026;-81
2021/06/14 00:08:43;;;;;;;6.22;3.10;;;435.70;2355.20;;;;;;5034168;28;20029;-80
2021/06/14 00:11:10;;;;;;;9.20;2.90;;;435.70;2355.20;;;;;;5034795;28;20460;-80
2021/06/14 00:13:36;;;;;;;7.15;2.70;;;435.60;2355.20;;;;;;5033922;28;20588;-81
2021/06/14 00:16:03;;;;;;;6.53;2.67;;;435.50;2355.20;;;;;;5033862;28;20115;-81
2021/06/14 00:18:29;;;;;;;8.82;2.88;;;435.60;2355.20;;;;;;5033487;28;20032;-80
2021/06/14 00:21:00;;;;;;;7.43;2.90;;;435.60;2355.20;;;;;;5033793;28;20021;-80
2021/06/14 00:23:29;;;;;;;7.50;2.78;;;435.50;2355.20;;;;;;5033729;28;20109;-80
2021/06/14 00:25:56;;;;;;;7.25;3.53;;;435.50;2355.20;;;;;;5033245;28;20461;-81
2021/06/14 00:28:22;;;;;;;9.57;3.83;;;435.50;2355.20;;;;;;5033504;28;20472;-79
2021/06/14 00:30:51;;;;;;;5.43;3.45;;;435.50;2355.20;;;;;;5034772;28;20028;-81
2021/06/14 00:33:18;;;;;;;9.25;3.35;;;435.40;2355.20;;;;;;5033207;28;20545;-79
2021/06/14 00:35:45;;;;;;;5.68;3.20;;;435.30;2355.20;;;;;;5033382;28;20053;-79
2021/06/14 00:38:12;;;;;;;7.80;3.10;;;435.30;2355.20;;;;;;5033377;28;20026;-79
2021/06/14 00:40:38;;;;;;;8.23;2.80;;;435.30;2355.20;;;;;;5034092;28;20438;-79
2021/06/14 00:43:06;;;;;;;4.35;2.45;;;435.30;2355.20;;;;;;5033330;28;20021;-80
2021/06/14 00:45:40;;;;;;;6.72;3.13;;;435.30;2355.20;;;;;;5034288;28;20511;-81
2021/06/14 00:48:07;;;;;;;7.40;2.72;;;435.30;2355.20;;;;;;5034318;28;20064;-81
2021/06/14 00:50:35;;;;;;;7.20;2.65;;;435.30;2355.20;;;;;;5033106;28;20116;-81
2021/06/14 00:53:02;;;;;;;14.93;3.55;;;435.30;2355.20;;;;;;5033213;28;20048;-81
2021/06/14 00:55:28;;;;;;;6.72;3.10;;;435.20;2355.20;;;;;;5032894;28;20378;-80
2021/06/14 00:57:54;;;;;;;8.77;2.72;;;435.20;2355.20;;;;;;5033069;28;20055;-80
2021/06/14 01:00:22;;;;;;;6.97;2.58;;;435.20;2355.20;;;;;;5033850;28;20030;-79
2021/06/14 01:02:48;;;;;;;5.05;3.05;;;435.20;2355.20;;;;;;5032452;28;20052;-81
2021/06/14 01:05:15;;;;;;;7.95;2.70;;;435.20;2355.20;;;;;;5032933;28;20025;-81
2021/06/14 01:07:41;;;;;;;9.15;2.60;;;410.40;2355.20;;;;;;5033658;28;20013;-81
2021/06/14 01:10:08;;;;;;;7.65;2.60;;;410.40;2355.20;;;;;;5033033;28;20346;-82
2021/06/14 01:12:47;;;;;;;7.07;2.42;;;435.20;2355.20;;;;;;5032934;28;20095;-79
2021/06/14 01:15:16;;;;;;;8.20;2.67;;;410.40;2355.20;;;;;;5032638;28;20025;-81
2021/06/14 01:17:55;;;;;;;8.27;2.60;;;410.50;2355.20;;;;;;5032735;28;20079;-81
2021/06/14 01:20:42;;;;;;;7.88;2.72;;;410.50;2355.20;;;;;;5032735;28;20109;-80
2021/06/14 01:23:21;;;;;;;6.60;2.80;;;410.50;2355.20;;;;;;5031673;28;20033;-79
2021/06/14 01:26:03;;;;;;;8.70;2.50;;;410.50;2355.20;;;;;;5032857;28;20591;-80
2021/06/14 01:28:31;;;;;;;6.55;2.80;;;410.50;2355.20;;;;;;5033499;28;20068;-80
2021/06/14 01:30:58;;;;;;;8.82;2.95;;;410.40;2355.20;;;;;;5032325;28;20022;-81
2021/06/14 01:33:27;;;;;;;9.13;2.67;;;410.40;2355.20;;;;;;5032395;28;20021;-79
2021/06/14 01:35:59;;;;;;;9.27;2.90;;;410.40;2355.20;;;;;;5029548;28;20029;-79
2021/06/14 01:38:28;;;;;;;7.50;2.63;;;410.30;2355.20;;;;;;5032786;28;20021;-80
2021/06/14 01:40:58;;;;;;;6.55;2.67;;;410.30;2355.20;;;;;;5032033;28;20056;-80
2021/06/14 01:43:26;;;;;;;8.48;2.70;;;410.30;2355.20;;;;;;5032976;28;20098;-80
2021/06/14 01:45:56;;;;;;;6.55;2.70;;;410.30;2355.20;;;;;;5032060;28;20072;-80
2021/06/14 01:48:24;;;;;;;10.13;3.25;;;410.30;2355.20;;;;;;5033722;28;20021;-80
2021/06/14 01:50:52;;;;;;;7.35;2.58;;;410.30;2355.20;;;;;;5032310;28;20377;-81
2021/06/14 01:53:18;;;;;;;6.97;3.03;;;410.20;2355.20;;;;;;5031913;28;20524;-80
2021/06/14 01:55:45;;;;;;;7.43;3.03;;;409.90;2355.20;;;;;;5031923;28;20124;-81
2021/06/14 01:58:12;;;;;;;9.57;3.20;;;409.70;2355.20;;;;;;5031596;28;20519;-79
2021/06/14 02:00:41;;;;;;;8.93;2.92;;;384.70;2329.60;;;;;;5033002;28;20099;-80
2021/06/14 02:03:07;;;;;;;14.05;3.15;;;409.90;2355.20;;;;;;5032400;28;20136;-80
2021/06/14 02:05:34;;;;;;;7.15;2.65;;;409.90;2355.20;;;;;;5032198;28;20079;-79
2021/06/14 02:08:01;;;;;;;10.38;3.80;;;409.90;2355.20;;;;;;5031964;28;20029;-81
2021/06/14 02:10:28;;;;;;;5.63;2.58;;;409.90;2355.20;;;;;;5031151;28;20025;-80
2021/06/14 02:12:55;;;;;;;6.40;2.63;;;409.90;2355.20;;;;;;5033150;28;20022;-81
2021/06/14 02:15:22;;;;;;;7.47;4.30;;;410.00;2355.20;;;;;;5031979;28;20025;-80
2021/06/14 02:17:51;;;;;;;5.10;2.83;;;410.00;2355.20;;;;;;5032027;28;20473;-80
2021/06/14 02:20:18;;;;;;;7.75;2.83;;;410.00;2355.20;;;;;;5032204;28;20025;-82
2021/06/14 02:22:43;;;;;;;9.55;2.85;;;410.00;2355.20;;;;;;5032117;28;20415;-80
2021/06/14 02:25:11;;;;;;;5.85;2.75;;;410.00;2355.20;;;;;;5031329;28;20037;-81
2021/06/14 02:27:38;;;;;;;6.22;2.50;;;410.00;2355.20;;;;;;5031505;28;20021;-81
2021/06/14 02:30:12;;;;;;;8.77;2.50;;;410.10;2355.20;;;;;;5031765;28;20021;-80
2021/06/14 02:32:38;;;;;;;4.88;2.50;;;410.00;2355.20;;;;;;5031924;28;20457;-80
2021/06/14 02:35:06;;;;;;;8.63;3.00;;;409.60;2355.20;;;;;;5033926;28;20025;-80
2021/06/14 02:37:35;;;;;;;8.52;2.72;;;410.00;2355.20;;;;;;5035728;28;20024;-80
2021/06/14 02:40:03;;;;;;;8.18;2.90;;;410.00;2355.20;;;;;;5035506;28;20024;-79
2021/06/14 02:42:29;;;;;;;6.05;2.67;;;409.90;2355.20;;;;;;5037241;28;20025;-81
2021/06/14 02:44:55;;;;;;;11.48;2.78;;;409.90;2355.20;;;;;;5035553;28;20033;-80
2021/06/14 02:47:22;;;;;;;7.70;2.83;;;409.90;2355.20;;;;;;5035401;28;20471;-79
2021/06/14 02:49:50;;;;;;;9.02;3.00;;;409.90;2355.20;;;;;;5035432;28;20108;-81
2021/06/14 02:52:17;;;;;;;12.27;3.28;;;409.90;2355.20;;;;;;5035226;28;20028;-81
2021/06/14 02:54:55;;;;;;;7.97;3.17;;;409.90;2355.20;;;;;;5035569;28;20406;-81
2021/06/14 02:57:23;;;;;;;5.25;3.15;;;409.90;2355.20;;;;;;5035114;28;20025;-81
2021/06/14 02:59:51;;;;;;;7.55;2.67;;;409.90;2355.20;;;;;;5035361;28;20022;-81
2021/06/14 03:02:20;;;;;;;9.77;3.33;;;409.90;2355.20;;;;;;5047376;28;20045;-80
2021/06/14 03:04:46;;;;;;;5.07;2.58;;;409.90;2355.20;;;;;;5056028;28;20044;-79
2021/06/14 03:07:12;;;;;;;8.45;3.20;;;409.80;2355.20;;;;;;5038302;28;20024;-81
2021/06/14 03:09:38;;;;;;;9.23;2.75;;;409.70;2355.20;;;;;;5056354;28;20114;-80
2021/06/14 03:12:05;;;;;;;7.60;2.70;;;384.90;2329.60;;;;;;5038466;28;20032;-80
2021/06/14 03:14:31;;;;;;;5.65;2.33;;;409.80;2355.20;;;;;;5038078;28;20028;-80
2021/06/14 03:16:58;;;;;;;5.35;2.80;;;409.90;2355.20;;;;;;5038260;28;20025;-80
2021/06/14 03:19:25;;;;;;;6.03;2.50;;;409.90;2355.20;;;;;;5038298;28;20025;-79
2021/06/14 03:21:51;;;;;;;10.95;2.78;;;409.90;2355.20;;;;;;5038052;28;20074;-80
2021/06/14 03:24:17;;;;;;;8.00;3.05;;;409.90;2355.20;;;;;;5037997;28;20039;-81
2021/06/14 03:26:45;;;;;;;8.68;2.72;;;409.90;2355.20;;;;;;5038113;28;20104;-81
2021/06/14 03:29:20;;;;;;;6.70;2.28;;;409.80;2355.20;;;;;;5037925;28;20040;-81
2021/06/14 03:31:48;;;;;;;8.50;3.53;;;409.80;2355.20;;;;;;5038217;28;20341;-81
2021/06/14 03:34:16;;;;;;;9.88;2.83;;;409.90;2355.20;;;;;;5037785;28;20021;-79
2021/06/14 03:36:42;;;;;;;4.97;3.03;;;409.90;2355.20;;;;;;5037898;28;20164;-79
2021/06/14 03:39:08;;;;;;;7.38;3.38;;;409.80;2355.20;;;;;;5037974;28;20467;-80
2021/06/14 03:41:34;;;;;;;7.53;2.67;;;409.90;2355.20;;;;;;5037672;28;20059;-80
2021/06/14 03:44:03;;;;;;;6.43;2.65;;;409.90;2355.20;;;;;;5037712;28;20056;-80
2021/06/14 03:46:29;;;;;;;5.35;2.67;;;410.00;2355.20;;;;;;5037008;28;20017;-81
2021/06/14 03:48:55;;;;;;;8.15;2.80;;;409.90;2355.20;;;;;;5037293;28;20028;-81
2021/06/14 03:51:21;;;;;;;10.27;2.90;;;410.00;2355.20;;;;;;5037602;28;20066;-79
2021/06/14 03:53:59;;;;;;;5.75;2.63;;;409.90;2355.20;;;;;;5037662;28;20073;-79
2021/06/14 03:56:31;;;;;;;8.15;2.97;;;409.90;2355.20;;;;;;5055245;28;20154;-81
2021/06/14 03:58:57;;;;;;;6.78;2.80;;;409.90;2355.20;;;;;;5037605;28;20029;-78
2021/06/14 04:01:23;;;;;;;8.23;4.47;;;409.90;2355.20;;;;;;5037091;28;20044;-80
2021/06/14 04:04:38;;;;;;;9.02;3.33;;;409.90;2355.20;;;;;;5037185;28;20372;-79
2021/06/14 04:06:38;;;;;;;9.45;3.25;;;409.70;2355.20;;;;;;5046808;28;20086;-81
2021/06/14 04:09:05;;;;;;;6.03;3.30;;;409.70;2355.20;;;;;;5055117;28;20103;-79
2021/06/14 04:11:31;;;;;;;8.15;2.63;;;409.70;2355.20;;;;;;5037095;28;20032;-80
2021/06/14 04:13:57;;;;;;;5.18;2.72;;;409.60;2355.20;;;;;;5037230;28;20021;-79
2021/06/14 04:16:23;;;;;;;6.90;3.08;;;409.60;2355.20;;;;;;5036842;28;20028;-80
2021/06/14 04:18:50;;;;;;;7.30;3.40;;;384.80;2329.60;;;;;;5037302;28;20116;-80
2021/06/14 04:21:16;;;;;;;7.13;2.70;;;409.60;2355.20;;;;;;5054684;28;20024;-80
2021/06/14 04:23:43;;;;;;;7.50;2.92;;;409.60;2355.20;;;;;;5054592;28;20013;-80
2021/06/14 04:26:10;;;;;;;6.88;3.00;;;409.60;2355.20;;;;;;5037101;28;20036;-81
2021/06/14 04:28:37;;;;;;;7.45;3.17;;;409.60;2355.20;;;;;;5036875;28;20107;-80
2021/06/14 04:31:03;;;;;;;6.13;3.15;;;409.60;2355.20;;;;;;5036537;28;20028;-79
2021/06/14 04:33:29;;;;;;;7.38;3.22;;;409.60;2355.20;;;;;;5036438;28;20021;-79
2021/06/14 04:35:54;;;;;;;5.95;3.05;;;384.90;2329.60;;;;;;5054683;28;20021;-79
2021/06/14 04:38:20;;;;;;;5.15;2.83;;;409.60;2355.20;;;;;;5036548;28;20123;-80
2021/06/14 04:40:46;;;;;;;9.48;3.08;;;409.60;2355.20;;;;;;5036784;28;20021;-80
2021/06/14 04:43:12;;;;;;;5.20;3.00;;;409.60;2355.20;;;;;;5054179;28;20372;-80
2021/06/14 04:45:38;;;;;;;11.35;6.70;;;409.60;2355.20;;;;;;5036327;28;20484;-80
2021/06/14 04:48:04;;;;;;;16.10;7.82;;;409.60;2355.20;;;;;;5036619;28;20102;-80
2021/06/14 04:50:30;;;;;;;11.88;5.13;;;409.90;2355.20;;;;;;5036490;28;20478;-81
2021/06/14 04:52:56;;;;;;;9.90;4.30;;;409.70;2355.20;;;;;;5035834;28;20116;-79
2021/06/14 04:55:22;;;;;;;10.27;3.83;;;409.90;2355.20;;;;;;5036582;28;20372;-79
2021/06/14 04:57:48;;;;;;;9.02;3.53;;;409.60;2355.20;;;;;;5035567;28;20464;-80
2021/06/14 05:00:16;;;;;;;8.65;3.45;;;409.60;2355.20;;;;;;5036258;28;20411;-79
2021/06/14 05:02:42;;;;;;;11.77;3.78;;;409.60;2355.20;;;;;;5036131;28;20073;-79
2021/06/14 05:05:08;;;;;;;7.43;3.38;;;409.60;2355.20;;;;;;5036124;28;20068;-81
2021/06/14 05:07:34;;;;;;;7.57;3.08;;;410.30;2355.20;;;;;;5053706;28;20028;-79
2021/06/14 05:10:00;;;;;;;8.80;3.58;;;409.80;2355.20;;;;;;5036304;28;20029;-82
2021/06/14 05:12:26;;;;;;;6.63;3.33;;;409.90;2355.20;;;;;;5035825;28;20031;-81
2021/06/14 05:14:52;;;;;;;6.05;3.13;;;410.00;2355.20;;;;;;5036110;28;20028;-81
2021/06/14 05:17:18;;;;;;;6.25;3.15;;;410.00;2355.20;;;;;;5036094;28;20025;-81
2021/06/14 05:19:47;;;;;;;5.05;2.72;;;410.00;2355.20;;;;;;5035894;28;20025;-80
2021/06/14 05:22:13;;;;;;;6.63;3.45;;;409.80;2355.20;;;;;;5036278;28;20053;-81
2021/06/14 05:24:40;;;;;;;8.80;3.60;;;410.30;2355.20;;;;;;5035564;28;20071;-80
2021/06/14 05:27:06;;;;;;;6.25;3.85;;;410.40;2355.20;;;;;;5035785;28;20024;-80
2021/06/14 05:29:32;;;;;;;9.05;4.65;;;410.40;2355.20;;;;;;5036205;28;20074;-81
2021/06/14 05:31:58;;;;;;;6.55;4.13;;;410.30;2355.20;;;;;;5053905;28;20399;-81
2021/06/14 05:34:24;;;;;;;9.15;4.90;;;410.30;2355.20;;;;;;5035927;28;20025;-79
2021/06/14 05:36:51;;;;;;;8.10;4.68;;;410.40;2355.20;;;;;;5035947;28;20025;-80
2021/06/14 05:39:17;;;;;;;10.13;4.70;;;410.40;2355.20;;;;;;5035980;28;20032;-80
2021/06/14 05:41:43;;;;;;;7.03;4.30;;;410.30;2355.20;;;;;;5035589;28;20145;-80
2021/06/14 05:44:09;;;;;;;8.93;4.53;;;410.40;2355.20;;;;;;5052603;28;20456;-82
2021/06/14 05:46:35;;;;;;;8.65;4.68;;;410.40;2355.20;;;;;;5035820;28;20017;-81
2021/06/14 05:49:03;;;;;;;5.70;4.10;;;410.40;2355.20;;;;;;5053518;28;20024;-80
2021/06/14 05:51:30;;;;;;;8.15;4.10;;;410.40;2355.20;;;;;;5035511;28;20017;-80
2021/06/14 05:53:56;;;;;;;7.78;4.35;;;410.40;2355.20;;;;;;5035417;28;20017;-81
2021/06/14 05:56:23;;;;;;;9.05;4.63;;;435.90;2355.20;;;;;;5035243;28;20032;-81
2021/06/14 05:58:49;;;;;;;7.22;4.75;;;435.20;2355.20;;;;;;5035000;28;20044;-80
2021/06/14 06:01:15;;;;;;;11.05;5.00;;;435.20;2355.20;;;;;;5035345;28;20017;-82
2021/06/14 06:03:41;;;;;;;6.70;4.68;;;435.20;2355.20;;;;;;5035888;28;20025;-79
2021/06/14 06:06:07;;;;;;;7.00;3.88;;;435.30;2355.20;;;;;;5035640;28;20029;-81
2021/06/14 06:08:33;;;;;;;9.48;4.53;;;435.30;2355.20;;;;;;5035268;28;20047;-80
2021/06/14 06:10:59;;;;;;;10.63;4.38;;;435.30;2355.20;;;;;;5038702;28;20453;-80
2021/06/14 06:13:24;;;;;;;8.10;4.55;;;435.50;2355.20;;;;;;5039290;28;20021;-80
2021/06/14 06:15:51;;;;;;;8.95;4.75;;;435.50;2355.20;;;;;;5039581;28;20025;-82
2021/06/14 06:18:16;;;;;;;11.10;5.50;;;410.20;2355.20;;;;;;5039424;28;20017;-80
2021/06/14 06:20:42;;;;;;;8.32;4.72;;;435.30;2355.20;;;;;;5039149;28;20108;-81
2021/06/14 06:23:08;;;;;;;7.55;4.80;;;435.50;2355.20;;;;;;5057335;28;20034;-81
2021/06/14 06:25:34;;;;;;;7.55;4.78;;;435.50;2355.20;;;;;;5039312;28;20029;-79
2021/06/14 06:28:00;;;;;;;10.10;4.95;;;435.50;2355.20;;;;;;5039009;28;20116;-80
2021/06/14 06:30:29;;;;;;;7.70;4.60;;;435.50;2355.20;;;;;;5039300;28;20056;-80
2021/06/14 06:32:55;;;;;;;12.52;5.22;;;435.50;2355.20;;;;;;5056872;28;20025;-82
2021/06/14 06:35:22;;;;;;;11.00;5.28;;;435.40;2355.20;;;;;;5039189;28;20471;-80
2021/06/14 06:37:48;;;;;;;9.63;5.60;;;435.30;2355.20;;;;;;5039309;28;20071;-80
2021/06/14 06:40:15;;;;;;;9.15;5.80;;;435.40;2355.20;;;;;;5038924;28;20017;-80
2021/06/14 06:42:42;;;;;;;9.18;7.38;;;435.60;2355.20;;;;;;5039077;28;20091;-79
2021/06/14 06:45:10;;;;;;;9.98;5.22;;;435.40;2355.20;;;;;;5039082;28;20116;-80
2021/06/14 06:47:37;;;;;;;9.23;5.10;;;435.50;2355.20;;;;;;5039054;28;20360;-81
2021/06/14 06:50:06;;;;;;;11.82;5.63;;;435.80;2355.20;;;;;;5041602;28;20032;-80
2021/06/14 06:52:32;;;;;;;7.18;4.57;;;435.80;2355.20;;;;;;5041681;28;20032;-80
2021/06/14 06:54:58;;;;;;;6.90;4.80;;;435.80;2355.20;;;;;;5041926;28;20525;-81
2021/06/14 06:57:25;;;;;;;6.90;4.20;;;435.80;2355.20;;;;;;5040379;28;20059;-80
2021/06/14 06:59:51;;;;;;;9.25;5.30;;;435.80;2355.20;;;;;;5041516;28;20021;-81
2021/06/14 07:02:17;;;;;;;10.23;4.72;;;435.80;2355.20;;;;;;5036703;28;20048;-79
2021/06/14 07:04:42;;;;;;;8.35;5.35;;;435.80;2355.20;;;;;;5037072;28;20034;-80
2021/06/14 07:07:09;;;;;;;10.40;4.55;;;435.80;2355.20;;;;;;5035528;28;20369;-80
2021/06/14 07:09:35;;;;;;;12.57;4.90;;;435.80;2355.20;;;;;;5035002;28;20017;-79
2021/06/14 07:12:02;;;;;;;7.47;5.13;;;435.80;2355.20;;;;;;5036660;28;20028;-79
2021/06/14 07:14:27;;;;;;;6.15;4.80;;;435.80;2355.20;;;;;;5035149;28;20368;-79
2021/06/14 07:16:53;;;;;;;9.88;6.10;;;435.80;2355.20;;;;;;5034975;28;20116;-78
2021/06/14 07:19:19;;;;;;;9.68;5.07;;;435.90;2355.20;;;;;;5041331;28;20026;-80
2021/06/14 07:21:45;;;;;;;8.45;4.90;;;435.90;2355.20;;;;;;5033843;28;20365;-79
2021/06/14 07:24:11;;;;;;;9.85;5.43;;;435.90;2355.20;;;;;;5035432;28;20021;-81
2021/06/14 07:26:37;;;;;;;7.88;6.00;;;435.90;2355.20;;;;;;5034992;28;20350;-81
2021/06/14 07:29:04;;;;;;;9.45;5.78;;;436.10;2355.20;;;;;;5034637;28;20818;-80
2021/06/14 07:31:30;;;;;;;8.50;4.15;;;435.80;2355.20;;;;;;5034822;28;20116;-79
2021/06/14 07:34:01;;;;;;;8.93;5.40;;;435.80;2355.20;;;;;;5034843;28;20027;-82
2021/06/14 07:36:29;;;;;;;9.77;5.88;;;436.10;2355.20;;;;;;5034518;28;20032;-80
2021/06/14 07:38:55;;;;;;;10.98;6.22;;;435.90;2355.20;;;;;;5035175;28;20017;-83
2021/06/14 07:41:21;;;;;;;11.68;6.55;;;410.50;2355.20;;;;;;5034745;28;20029;-80
2021/06/14 07:43:48;;;;;;;10.15;5.78;;;435.90;2355.20;;;;;;5034787;28;20060;-83
2021/06/14 07:46:14;;;;;;;13.10;6.15;;;435.90;2355.20;;;;;;5034391;28;20030;-80
2021/06/14 07:48:40;;;;;;;8.25;4.75;;;435.90;2355.20;;;;;;5034714;28;20021;-80
2021/06/14 07:51:07;;;;;;;9.80;5.22;;;435.90;2355.20;;;;;;5034192;28;20021;-80
2021/06/14 07:53:34;;;;;;;10.65;5.43;;;435.90;2355.20;;;;;;5050285;28;20029;-80
2021/06/14 07:55:59;;;;;;;11.98;5.57;;;435.90;2355.20;;;;;;5054512;28;20025;-80
2021/06/14 07:58:26;;;;;;;12.70;7.10;;;436.00;2355.20;;;;;;5054218;28;20444;-80
2021/06/14 08:00:52;;;;;;;8.95;5.10;;;436.00;2355.20;;;;;;5054344;28;20021;-80
2021/06/14 08:03:20;;;;;;;8.05;5.53;;;436.10;2355.20;;;;;;5054058;28;20041;-80
2021/06/14 08:05:46;;;;;;;10.45;5.88;;;436.10;2355.20;;;;;;5054056;28;20033;-80
2021/06/14 08:08:13;;;;;;;9.13;5.30;;;460.80;2380.80;;;;;;5054224;28;20055;-81
2021/06/14 08:10:41;;;;;;;12.00;4.60;;;460.80;2380.80;;;;;;5053865;28;20021;-80
2021/06/14 08:13:06;;;;;;;9.90;4.68;;;460.90;2380.80;;;;;;5055036;28;20017;-79
2021/06/14 08:15:34;;;;;;;10.43;4.63;;;460.80;2380.80;;;;;;5055483;28;20032;-80
2021/06/14 08:26:14;;;;;;;8.68;4.88;;;461.10;2355.20;;;;;;5051497;28;20451;-81
2021/06/14 08:28:41;;;;;;;8.63;4.43;;;461.20;2355.20;;;;;;5053846;28;20056;-82
2021/06/14 08:31:07;;;;;;;9.63;4.03;;;461.30;2329.60;;;;;;5053619;28;20119;-80
2021/06/14 08:33:33;;;;;;;8.55;3.90;;;461.40;2329.60;;;;;;5053252;28;20075;-79
2021/06/14 08:35:59;;;;;;;8.85;4.20;;;461.30;2329.60;;;;;;5053510;28;20072;-78
2021/06/14 08:38:25;;;;;;;10.27;4.45;;;461.40;2329.60;;;;;;5053341;28;20048;-80
2021/06/14 08:40:51;;;;;;;12.98;6.15;;;461.50;2380.80;;;;;;5054647;28;20033;-78
2021/06/14 08:43:20;;;;;;;7.90;3.97;;;461.50;2329.60;;;;;;5054631;28;20090;-79
2021/06/14 08:45:48;;;;;;;8.80;4.45;;;461.50;2329.60;;;;;;5054204;28;20025;-79
2021/06/14 08:48:15;;;;;;;10.10;3.83;;;461.70;2355.20;;;;;;5053224;28;20032;-83
2021/06/14 08:50:41;;;;;;;12.15;4.57;;;486.50;2329.60;;;;;;5053437;28;20029;-80
2021/06/14 08:53:08;;;;;;;9.60;3.80;;;486.60;2329.60;;;;;;5052729;28;20108;-79
2021/06/14 08:55:35;;;;;;;7.35;5.00;;;487.00;2355.20;;;;;;5053112;28;20025;-80
2021/06/14 08:58:02;;;;;;;27.45;22.42;;;512.10;2278.40;;;;;;5053224;28;20021;-79
2021/06/14 09:00:29;;;;;;;11.18;5.03;;;512.60;2304.00;;;;;;5051158;28;20027;-77
2021/06/14 09:02:56;;;;;;;13.27;6.72;;;537.70;2227.20;;;;;;5047435;28;20049;-76
2021/06/14 09:05:23;;;;;;;11.30;5.07;;;537.80;2227.20;;;;;;5041441;28;20033;-84
2021/06/14 09:07:51;;;;;;;12.40;3.45;;;538.10;2227.20;;;;;;5034630;28;20025;-75
2021/06/14 09:10:29;;;;;;;8.73;4.75;;;538.20;2124.80;;;;;;5041445;28;20100;-75
2021/06/14 09:13:18;;;;;;;12.88;8.23;;;538.50;2124.80;;;;;;5012564;28;20021;-76
2021/06/14 09:15:47;;;;;;;8.73;4.00;;;538.40;2124.80;;;;;;5024250;28;20030;-75
2021/06/14 09:18:26;;;;;;;7.28;3.50;;;538.40;2124.80;;;;;;5032992;28;20049;-76
2021/06/14 09:21:04;;;;;;;11.07;3.90;;;538.50;2048.00;;;;;;5032222;28;20018;-76
2021/06/14 09:23:41;;;;;;;7.10;3.35;;;563.40;2176.00;;;;;;5032677;28;20017;-78
2021/06/14 09:26:19;;;;;;;6.88;3.10;;;563.50;2022.40;;;;;;5033368;28;20033;-78
2021/06/14 09:29:08;;;;;;;9.43;5.05;;;563.70;2048.00;;;;;;5032413;28;20484;-78
2021/06/14 09:31:42;;;;;;;8.38;3.70;;;563.80;1996.80;;;;;;5032578;28;20024;-76
2021/06/14 09:34:09;;;;;;;11.65;3.97;;;564.10;1971.20;;;;;;5041358;28;20035;-77
2021/06/14 09:36:35;;;;;;;6.63;3.25;;;588.90;1971.20;;;;;;5042865;28;20052;-80
2021/06/14 09:39:10;;;;;;;7.38;3.20;;;589.00;1868.80;;;;;;5052314;28;20403;-81
2021/06/14 09:41:42;;;;;;;7.32;2.90;;;564.10;1894.40;;;;;;5051255;28;20025;-81
2021/06/14 09:44:09;;;;;;;6.25;2.88;;;588.80;1945.60;;;;;;5052398;28;20461;-81
2021/06/14 09:46:36;;;;;;;6.13;3.10;;;589.00;1868.80;;;;;;5056012;28;20025;-81
2021/06/14 09:49:05;;;;;;;7.93;3.25;;;589.00;1894.40;;;;;;5056312;28;20707;-81
2021/06/14 09:51:34;;;;;;;7.20;3.22;;;588.90;1920.00;;;;;;5056623;28;20021;-83
2021/06/14 09:54:02;;;;;;;7.65;2.85;;;588.90;1894.40;;;;;;5056654;28;20028;-81
2021/06/14 09:56:35;;;;;;;7.13;3.05;;;589.30;1894.40;;;;;;5056220;28;20017;-81
2021/06/14 09:59:01;;;;;;;20.75;3.85;;;588.80;1945.60;;;;;;5056570;28;20029;-81
2021/06/14 10:01:27;;;;;;;14.75;3.08;;;564.10;1945.60;;;;;;5056088;28;20512;-81
2021/06/14 10:03:53;;;;;;;9.48;3.10;;;563.80;1945.60;;;;;;5057793;28;20068;-78
2021/06/14 10:06:34;;;;;;;9.38;3.25;;;563.50;1971.20;;;;;;5051624;28;20058;-78
2021/06/14 10:09:00;;;;;;;7.40;3.30;;;563.30;1971.20;;;;;;5043191;28;20143;-79
2021/06/14 10:11:37;;;;;;;11.63;4.05;;;538.50;1945.60;;;;;;5044788;28;20059;-78
2021/06/14 10:14:12;;;;;;;10.57;3.92;;;538.30;1971.20;;;;;;5044857;28;20368;-81
2021/06/14 10:16:38;;;;;;;5.45;2.70;;;538.20;1971.20;;;;;;5044606;28;20064;-78
2021/06/14 10:19:08;;;;;;;7.93;3.30;;;538.10;1920.00;;;;;;5045951;28;20017;-77
2021/06/14 10:21:36;;;;;;;9.05;3.15;;;537.90;1971.20;;;;;;5047590;28;20020;-78
2021/06/14 10:24:22;;;;;;;9.27;3.85;;;537.70;1945.60;;;;;;5041425;28;20021;-77
2021/06/14 10:26:51;;;;;;;8.10;3.25;;;537.80;2022.40;;;;;;5042761;28;20045;-78
2021/06/14 10:29:18;;;;;;;4.25;2.75;;;537.80;1996.80;;;;;;5052300;28;20460;-78
2021/06/14 10:31:47;;;;;;;5.78;2.95;;;537.80;1996.80;;;;;;5055498;28;20423;-78
2021/06/14 10:34:14;;;;;;;9.52;4.22;;;537.80;1971.20;;;;;;5057010;28;20024;-79
2021/06/14 10:36:49;;;;;;;6.65;3.33;;;537.80;1996.80;;;;;;5055813;28;20096;-80
2021/06/14 10:39:18;;;;;;;6.00;2.80;;;537.80;1996.80;;;;;;5043311;28;20021;-78
2021/06/14 10:41:45;;;;;;;10.90;3.60;;;537.80;1945.60;;;;;;5035693;28;20017;-78
2021/06/14 10:44:11;;;;;;;8.00;3.30;;;537.60;1945.60;;;;;;5035536;28;20526;-78
2021/06/14 10:46:44;;;;;;;9.40;3.83;;;512.80;1996.80;;;;;;5036510;28;20017;-78
2021/06/14 10:49:12;;;;;;;;;;;512.90;1945.60;;;;;;5037498;28;20028;-78
2021/06/14 10:51:40;;;;;;;12.50;3.95;;;512.90;1971.20;;;;;;5036589;28;19901;-78
2021/06/14 10:54:11;;;;;;;10.20;4.60;;;512.60;1971.20;;;;;;5035272;28;20413;-77
2021/06/14 10:56:40;;;;;;;9.02;4.13;;;512.60;1996.80;;;;;;5035185;28;20028;-78
2021/06/14 10:59:09;;;;;;;5.35;3.50;;;512.50;1996.80;;;;;;5035011;28;20024;-82
2021/06/14 11:01:46;;;;;;;9.00;3.97;;;512.60;2022.40;;;;;;5035016;28;20037;-82
2021/06/14 11:04:29;;;;;;;6.93;3.50;;;512.80;2022.40;;;;;;5035118;28;20112;-80
2021/06/14 11:06:56;;;;;;;7.90;3.13;;;512.50;2022.40;;;;;;5035015;28;20026;-81
2021/06/14 11:09:24;;;;;;;6.95;3.90;;;512.40;2022.40;;;;;;5035153;28;20112;-80
2021/06/14 11:11:51;;;;;;;8.38;4.03;;;512.50;2048.00;;;;;;5036452;28;20468;-82
2021/06/14 11:14:46;;;;;;;7.13;3.53;;;512.40;2073.60;;;;;;5036183;28;20025;-81
2021/06/14 11:17:25;;;;;;;6.43;3.47;;;512.30;2048.00;;;;;;5021999;28;20087;-81
2021/06/14 11:20:00;;;;;;;8.82;3.50;;;512.20;2073.60;;;;;;5035842;28;20021;-82
2021/06/14 11:22:46;;;;;;;10.52;5.97;;;512.50;2073.60;;;;;;5035161;28;20028;-81
2021/06/14 11:25:15;;;;;;;10.07;3.30;;;512.70;1996.80;;;;;;5034755;28;20091;-78
2021/06/14 11:27:42;;;;;;;7.10;3.13;;;512.50;2022.40;;;;;;5034418;28;20088;-81
2021/06/14 11:30:24;;;;;;;6.97;3.92;;;512.80;2022.40;;;;;;5034696;28;20079;-82
2021/06/14 11:32:50;;;;;;;6.90;3.50;;;512.70;1971.20;;;;;;5034846;28;20052;-79
2021/06/14 11:35:17;;;;;;;7.07;3.60;;;512.10;2048.00;;;;;;5035544;28;20132;-79
2021/06/14 11:37:47;;;;;;;6.13;3.30;;;512.70;2022.40;;;;;;5035448;28;20037;-76
2021/06/14 11:40:16;;;;;;;8.15;3.20;;;512.60;1996.80;;;;;;5034443;28;20036;-82
2021/06/14 11:42:51;;;;;;;5.65;2.92;;;512.40;2022.40;;;;;;5034461;28;20021;-80
2021/06/14 11:45:30;;;;;;;6.45;3.13;;;512.30;2022.40;;;;;;5034233;28;20120;-81
2021/06/14 11:48:03;;;;;;;5.28;2.72;;;512.20;2022.40;;;;;;5034807;28;20021;-81
2021/06/14 11:50:32;;;;;;;5.05;2.42;;;512.10;1996.80;;;;;;5034878;28;20021;-81
2021/06/14 11:53:05;;;;;;;6.32;2.58;;;512.20;1971.20;;;;;;5036601;28;20052;-84
2021/06/14 11:55:37;;;;;;;5.20;3.08;;;512.20;1945.60;;;;;;5036652;28;20053;-83
2021/06/14 11:58:06;;;;;;;6.40;2.42;;;512.30;1945.60;;;;;;5035585;28;20014;-83
2021/06/14 12:00:33;;;;;;;4.43;2.30;;;512.90;1894.40;;;;;;5034811;28;20049;-83
2021/06/14 12:03:01;;;;;;;6.80;2.30;;;512.80;1894.40;;;;;;5033501;28;20045;-79
2021/06/14 12:05:35;;;;;;;4.30;2.40;;;512.60;1920.00;;;;;;5034259;28;20033;-82
2021/06/14 12:08:07;;;;;;;6.05;2.75;;;512.40;1920.00;;;;;;5035629;28;20527;-83
2021/06/14 12:10:33;;;;;;;6.18;2.53;;;512.10;1971.20;;;;;;5034130;28;20022;-83
2021/06/14 12:13:09;;;;;;;7.93;3.33;;;512.00;1971.20;;;;;;5034168;28;20098;-78
2021/06/14 12:15:35;;;;;;;8.10;3.28;;;487.30;2022.40;;;;;;5035163;28;20017;-80
2021/06/14 12:18:02;;;;;;;5.38;2.80;;;486.90;2022.40;;;;;;5034026;28;20060;-81
2021/06/14 12:20:31;;;;;;;5.15;2.50;;;512.00;2073.60;;;;;;5041807;28;20025;-80
2021/06/14 12:23:05;;;;;;;5.75;2.78;;;487.00;2099.20;;;;;;5054897;28;20021;-80
2021/06/14 12:25:33;;;;;;;6.55;3.47;;;487.00;2150.40;;;;;;5047421;28;20056;-78
2021/06/14 12:28:00;;;;;;;6.97;3.80;;;486.90;2150.40;;;;;;5050045;28;20018;-78
2021/06/14 12:30:27;;;;;;;7.30;3.20;;;486.80;2201.60;;;;;;5049605;28;20045;-78